createdAt,value
2023-05-21T00:01:29.479Z,36.20
2023-05-21T00:03:58.976Z,38.42
2023-05-21T00:06:29.162Z,38.88
2023-05-21T00:08:58.324Z,28.63
2023-05-21T00:11:27.514Z,45.17
2023-05-21T00:13:56.519Z,41.67
2023-05-21T00:16:25.947Z,46.83
2023-05-21T00:18:56.030Z,45.95
2023-05-21T00:21:27.636Z,43.72
2023-05-21T00:23:58.140Z,42.83
2023-05-21T00:26:27.474Z,38.33
2023-05-21T00:28:56.384Z,42.83
2023-05-21T00:31:25.430Z,41.95
2023-05-21T00:33:54.418Z,50.25
2023-05-21T00:36:25.214Z,43.80
2023-05-21T00:38:54.492Z,41.28
2023-05-21T00:41:24.714Z,41.53
2023-05-21T00:43:54.435Z,29.88
2023-05-21T00:46:24.028Z,37.20
2023-05-21T00:48:53.287Z,29.55
2023-05-21T00:51:23.289Z,38.47
2023-05-21T00:53:54.076Z,49.58
2023-05-21T00:56:24.233Z,50.53
2023-05-21T00:58:56.180Z,40.42
2023-05-21T01:01:27.634Z,38.45
2023-05-21T01:03:59.256Z,42.80
2023-05-21T01:06:28.252Z,35.47
2023-05-21T01:09:00.583Z,28.65
2023-05-21T01:11:35.496Z,43.50
2023-05-21T01:14:04.547Z,35.15
2023-05-21T01:16:33.835Z,44.15
2023-05-21T01:19:04.954Z,38.45
2023-05-21T01:21:37.607Z,45.10
2023-05-21T01:24:07.107Z,40.07
2023-05-21T01:26:40.192Z,42.13
2023-05-21T01:29:14.581Z,47.88
2023-05-21T01:32:01.543Z,48.28
2023-05-21T01:34:59.670Z,47.45
2023-05-21T01:37:44.022Z,39.33
2023-05-21T01:40:28.607Z,59.00
2023-05-21T01:42:57.988Z,53.88
2023-05-21T01:45:27.615Z,58.90
2023-05-21T01:47:57.989Z,45.92
2023-05-21T01:50:28.117Z,55.25
2023-05-21T01:53:02.481Z,56.08
2023-05-21T01:55:32.272Z,61.60
2023-05-21T01:58:02.434Z,32.60
2023-05-21T02:00:33.826Z,37.30
2023-05-21T02:03:02.921Z,54.55
2023-05-21T02:05:32.074Z,41.67
2023-05-21T02:08:01.580Z,47.80
2023-05-21T02:10:30.658Z,47.75
2023-05-21T02:13:00.857Z,44.53
2023-05-21T02:15:29.812Z,63.30
2023-05-21T02:17:59.954Z,46.22
2023-05-21T02:20:29.022Z,51.75
2023-05-21T02:22:58.062Z,67.18
2023-05-21T02:25:27.238Z,55.65
2023-05-21T02:27:58.205Z,60.95
2023-05-21T02:30:27.226Z,61.38
2023-05-21T02:32:57.212Z,45.45
2023-05-21T02:35:26.682Z,53.97
2023-05-21T02:37:55.865Z,69.97
2023-05-21T02:40:26.741Z,57.33
2023-05-21T02:42:55.732Z,77.40
2023-05-21T02:45:24.722Z,64.03
2023-05-21T02:47:56.062Z,50.05
2023-05-21T02:50:25.453Z,68.38
2023-05-21T02:52:54.389Z,60.28
2023-05-21T02:55:24.235Z,69.82
2023-05-21T02:57:53.249Z,46.75
2023-05-21T03:00:22.588Z,53.95
2023-05-21T03:02:51.572Z,59.58
2023-05-21T03:05:23.864Z,51.42
2023-05-21T03:07:52.927Z,68.22
2023-05-21T03:10:22.136Z,59.72
2023-05-21T03:12:51.210Z,67.35
2023-05-21T03:15:25.366Z,62.00
2023-05-21T03:17:55.761Z,62.25
2023-05-21T03:20:24.879Z,57.22
2023-05-21T03:22:54.380Z,68.65
2023-05-21T03:25:23.407Z,53.47
2023-05-21T03:27:52.475Z,68.80
2023-05-21T03:30:21.558Z,61.42
2023-05-21T03:32:51.236Z,54.03
2023-05-21T03:35:20.281Z,62.60
2023-05-21T03:37:49.272Z,52.60
2023-05-21T03:40:18.305Z,57.30
2023-05-21T03:42:47.278Z,45.00
2023-05-21T03:45:16.256Z,37.58
2023-05-21T03:47:45.383Z,47.17
2023-05-21T03:50:14.458Z,59.35
2023-05-21T03:52:43.502Z,47.65
2023-05-21T03:55:12.635Z,67.15
2023-05-21T03:57:41.781Z,57.05
2023-05-21T04:00:11.531Z,57.30
2023-05-21T04:02:40.664Z,60.60
2023-05-21T04:05:09.878Z,53.97
2023-05-21T04:07:39.930Z,53.65
2023-05-21T04:10:09.225Z,39.95
2023-05-21T04:12:38.280Z,59.05
2023-05-21T04:15:07.601Z,72.50
2023-05-21T04:17:36.900Z,67.38
2023-05-21T04:20:06.586Z,78.45
2023-05-21T04:22:36.795Z,66.90
2023-05-21T04:25:05.873Z,62.03
2023-05-21T04:27:36.104Z,64.88
2023-05-21T04:30:05.876Z,67.47
2023-05-21T04:32:36.502Z,70.35
2023-05-21T04:35:05.883Z,55.00
2023-05-21T04:37:36.584Z,81.15
2023-05-21T04:40:05.682Z,55.90
2023-05-21T04:42:35.536Z,62.88
2023-05-21T04:45:04.601Z,78.47
2023-05-21T04:47:36.900Z,73.13
2023-05-21T04:50:06.124Z,73.60
2023-05-21T04:52:36.296Z,75.93
2023-05-21T04:55:05.720Z,82.18
2023-05-21T04:57:34.794Z,61.22
2023-05-21T05:00:04.497Z,71.82
2023-05-21T05:02:33.575Z,58.90
2023-05-21T05:05:02.769Z,66.90
2023-05-21T05:07:31.793Z,67.53
2023-05-21T05:10:00.782Z,60.53
2023-05-21T05:12:29.770Z,64.05
2023-05-21T05:14:58.736Z,61.30
2023-05-21T05:17:27.857Z,58.88
2023-05-21T05:19:56.848Z,64.10
2023-05-21T05:22:25.822Z,62.92
2023-05-21T05:24:54.789Z,60.35
2023-05-21T05:27:23.755Z,73.13
2023-05-21T05:29:52.728Z,70.25
2023-05-21T05:32:21.756Z,58.95
2023-05-21T05:34:50.795Z,64.70
2023-05-21T05:37:19.862Z,58.45
2023-05-21T05:39:48.868Z,67.15
2023-05-21T05:42:17.870Z,72.63
2023-05-21T05:44:46.849Z,71.50
2023-05-21T05:47:15.820Z,67.95
2023-05-21T05:49:45.233Z,67.55
2023-05-21T05:52:14.316Z,59.80
2023-05-21T05:54:43.417Z,50.40
2023-05-21T05:57:12.565Z,70.80
2023-05-21T05:59:41.586Z,67.13
2023-05-21T06:02:10.562Z,67.72
2023-05-21T06:04:39.573Z,43.33
2023-05-21T06:07:08.614Z,53.28
2023-05-21T06:09:37.653Z,51.50
2023-05-21T06:12:08.664Z,60.08
2023-05-21T06:14:38.583Z,65.57
2023-05-21T06:17:07.797Z,64.90
2023-05-21T06:19:36.753Z,65.90
2023-05-21T06:22:06.303Z,75.82
2023-05-21T06:24:35.247Z,63.40
2023-05-21T06:27:05.576Z,79.25
2023-05-21T06:29:34.619Z,54.88
2023-05-21T06:32:03.678Z,62.80
2023-05-21T06:34:32.624Z,69.13
2023-05-21T06:37:01.683Z,56.92
2023-05-21T06:39:30.651Z,65.68
2023-05-21T06:41:59.626Z,58.97
2023-05-21T06:44:28.611Z,56.78
2023-05-21T06:46:57.632Z,63.65
2023-05-21T06:49:26.642Z,61.60
2023-05-21T06:51:55.674Z,53.03
2023-05-21T06:54:26.714Z,48.97
2023-05-21T06:56:56.625Z,56.55
2023-05-21T06:59:25.639Z,67.80
2023-05-21T07:01:54.633Z,64.55
2023-05-21T07:04:23.707Z,50.22
2023-05-21T07:06:53.935Z,69.75
2023-05-21T07:09:22.968Z,52.80
2023-05-21T07:11:51.980Z,70.28
2023-05-21T07:14:21.306Z,68.25
2023-05-21T07:16:50.328Z,81.30
2023-05-21T07:19:19.396Z,52.33
2023-05-21T07:21:48.776Z,64.57
2023-05-21T07:24:17.879Z,76.95
2023-05-21T07:26:47.034Z,42.22
2023-05-21T07:29:16.079Z,53.65
2023-05-21T07:31:45.086Z,59.25
2023-05-21T07:34:14.209Z,64.22
2023-05-21T07:36:43.240Z,56.65
2023-05-21T07:39:12.580Z,74.30
2023-05-21T07:41:41.650Z,53.83
2023-05-21T07:44:10.941Z,65.32
2023-05-21T07:46:40.175Z,67.47
2023-05-21T07:49:09.330Z,46.17
2023-05-21T07:51:38.403Z,62.58
2023-05-21T07:54:07.402Z,41.78
2023-05-21T07:56:36.426Z,61.45
2023-05-21T07:59:05.573Z,47.92
2023-05-21T08:01:34.776Z,65.22
2023-05-21T08:04:07.244Z,57.08
2023-05-21T08:06:36.366Z,56.47
2023-05-21T08:09:06.292Z,50.20
2023-05-21T08:11:35.359Z,51.60
2023-05-21T08:14:04.340Z,63.97
2023-05-21T08:16:33.533Z,44.78
2023-05-21T08:19:02.744Z,49.45
2023-05-21T08:21:32.254Z,42.75
2023-05-21T08:24:01.968Z,39.03
2023-05-21T08:26:31.071Z,50.90
2023-05-21T08:29:00.154Z,36.60
2023-05-21T08:31:29.716Z,41.83
2023-05-21T08:33:58.802Z,63.60
2023-05-21T08:36:27.861Z,57.13
2023-05-21T08:38:56.964Z,49.85
2023-05-21T08:41:26.233Z,55.45
2023-05-21T08:43:59.192Z,58.65
2023-05-21T08:46:31.020Z,56.30
2023-05-21T08:49:01.054Z,40.20
2023-05-21T08:51:30.511Z,51.75
2023-05-21T08:53:59.844Z,59.42
2023-05-21T08:56:29.242Z,47.15
2023-05-21T08:58:58.487Z,53.58
2023-05-21T09:01:27.924Z,58.95
2023-05-21T09:04:05.054Z,71.30
2023-05-21T09:06:37.753Z,63.55
2023-05-21T09:09:17.009Z,65.07
2023-05-21T09:11:48.075Z,59.67
2023-05-21T09:14:17.524Z,56.15
2023-05-21T09:16:49.770Z,60.80
2023-05-21T09:19:18.833Z,67.78
2023-05-21T09:21:47.839Z,58.80
2023-05-21T09:24:16.885Z,55.05
2023-05-21T09:26:46.033Z,52.42
2023-05-21T09:29:15.036Z,64.53
2023-05-21T09:31:47.113Z,59.88
2023-05-21T09:34:16.442Z,54.65
2023-05-21T09:36:48.743Z,64.22
2023-05-21T09:39:37.732Z,59.08
2023-05-21T09:42:06.826Z,53.03
2023-05-21T09:44:36.877Z,60.92
2023-05-21T09:47:05.962Z,63.55
2023-05-21T09:49:34.983Z,56.83
2023-05-21T09:52:04.105Z,60.58
2023-05-21T09:54:34.877Z,39.75
2023-05-21T09:57:06.674Z,44.13
2023-05-21T09:59:39.408Z,57.80
2023-05-21T10:02:22.396Z,42.45
2023-05-21T10:04:52.528Z,63.95
2023-05-21T10:07:27.840Z,54.15
2023-05-21T10:09:58.358Z,53.95
2023-05-21T10:12:27.586Z,65.93
2023-05-21T10:15:02.925Z,47.00
2023-05-21T10:17:35.103Z,32.97
2023-05-21T10:20:05.434Z,36.33
2023-05-21T10:22:34.530Z,33.28
2023-05-21T10:25:05.176Z,41.28
2023-05-21T10:27:34.408Z,45.72
2023-05-21T10:30:03.880Z,35.50
2023-05-21T10:32:33.524Z,35.75
2023-05-21T10:35:04.011Z,39.13
2023-05-21T10:37:33.126Z,34.70
2023-05-21T10:40:02.328Z,47.85
2023-05-21T10:42:34.319Z,64.65
2023-05-21T10:45:12.160Z,55.40
2023-05-21T10:47:52.155Z,49.17
2023-05-21T10:50:29.338Z,50.25
2023-05-21T10:53:16.391Z,39.13
2023-05-21T10:55:45.384Z,43.65
2023-05-21T10:58:34.512Z,48.50
2023-05-21T11:01:03.979Z,33.70
2023-05-21T11:03:36.673Z,38.13
2023-05-21T11:06:10.052Z,50.58
2023-05-21T11:08:40.374Z,42.42
2023-05-21T11:11:09.620Z,42.25
2023-05-21T11:13:51.920Z,53.20
2023-05-21T11:16:23.643Z,35.47
2023-05-21T11:18:52.638Z,49.92
2023-05-21T11:21:24.371Z,59.10
2023-05-21T11:23:53.385Z,45.53
2023-05-21T11:26:24.031Z,45.75
2023-05-21T11:28:53.733Z,47.50
2023-05-21T11:31:27.325Z,57.70
2023-05-21T11:34:12.028Z,55.47
2023-05-21T11:36:41.867Z,31.02
2023-05-21T11:39:16.958Z,39.50
2023-05-21T11:42:04.517Z,44.25
2023-05-21T11:44:46.694Z,38.92
2023-05-21T11:47:20.227Z,45.28
2023-05-21T11:52:18.113Z,34.90
2023-05-21T11:54:59.886Z,37.55
2023-05-21T11:57:33.334Z,41.00
2023-05-21T12:00:03.195Z,32.83
2023-05-21T12:02:35.146Z,37.25
2023-05-21T12:05:04.206Z,48.30
2023-05-21T12:07:33.222Z,39.03
2023-05-21T12:10:02.481Z,43.80
2023-05-21T12:12:41.792Z,37.00
2023-05-21T12:15:15.106Z,36.60
2023-05-21T12:17:44.235Z,41.50
2023-05-21T12:20:18.080Z,39.63
2023-05-21T12:22:47.236Z,38.08
2023-05-21T12:25:16.239Z,42.35
2023-05-21T12:27:46.548Z,34.40
2023-05-21T12:30:15.778Z,35.80
2023-05-21T12:32:48.124Z,39.13
2023-05-21T12:35:24.517Z,30.50
2023-05-21T12:37:54.003Z,30.00
2023-05-21T12:40:23.737Z,33.95
2023-05-21T12:42:53.158Z,39.10
2023-05-21T12:45:24.151Z,41.90
2023-05-21T12:47:57.581Z,40.67
2023-05-21T12:53:00.730Z,33.05
2023-05-21T12:55:30.133Z,42.83
2023-05-21T12:58:09.908Z,39.35
2023-05-21T13:00:39.388Z,38.95
2023-05-21T13:03:08.753Z,34.15
2023-05-21T13:05:37.876Z,45.67
2023-05-21T13:08:07.041Z,57.00
2023-05-21T13:10:36.220Z,38.25
2023-05-21T13:13:05.389Z,33.65
2023-05-21T13:15:34.603Z,41.75
2023-05-21T13:18:04.284Z,37.80
2023-05-21T13:20:33.374Z,33.17
2023-05-21T13:23:04.701Z,28.27
2023-05-21T13:25:35.038Z,34.40
2023-05-21T13:28:05.026Z,45.95
2023-05-21T13:30:37.316Z,45.35
2023-05-21T13:33:08.071Z,51.63
2023-05-21T13:35:37.217Z,37.85
2023-05-21T13:38:06.291Z,46.25
2023-05-21T13:40:37.367Z,40.03
2023-05-21T13:43:07.811Z,55.30
2023-05-21T13:45:37.334Z,41.15
2023-05-21T13:48:06.546Z,43.25
2023-05-21T13:50:36.068Z,35.60
2023-05-21T13:53:05.337Z,42.85
2023-05-21T13:55:34.381Z,56.45
2023-05-21T13:58:03.425Z,49.50
2023-05-21T14:00:32.513Z,53.42
2023-05-21T14:03:01.859Z,38.45
2023-05-21T14:05:31.037Z,52.67
2023-05-21T14:08:00.133Z,43.30
2023-05-21T14:10:29.198Z,38.40
2023-05-21T14:13:07.455Z,39.50
2023-05-21T14:15:44.968Z,43.00
2023-05-21T14:18:13.955Z,44.15
2023-05-21T14:20:43.867Z,51.95
2023-05-21T14:23:13.171Z,43.20
2023-05-21T14:25:42.962Z,46.38
2023-05-21T14:28:11.991Z,40.53
2023-05-21T14:30:41.020Z,38.88
2023-05-21T14:33:10.068Z,39.80
2023-05-21T14:35:39.119Z,43.30
2023-05-21T14:38:08.180Z,41.35
2023-05-21T14:40:37.265Z,45.08
2023-05-21T14:43:07.269Z,49.20
2023-05-21T14:45:37.121Z,51.42
2023-05-21T14:48:13.420Z,51.55
2023-05-21T14:50:42.615Z,40.35
2023-05-21T14:53:12.313Z,37.40
2023-05-21T14:55:41.591Z,45.00
2023-05-21T14:58:11.025Z,43.72
2023-05-21T15:00:40.971Z,41.42
2023-05-21T15:03:10.555Z,47.83
2023-05-21T15:05:39.876Z,42.45
2023-05-21T15:08:11.189Z,40.78
2023-05-21T15:10:40.457Z,38.55
2023-05-21T15:13:09.529Z,45.65
2023-05-21T15:15:39.024Z,41.03
2023-05-21T15:18:08.389Z,41.63
2023-05-21T15:20:37.515Z,40.40
2023-05-21T15:23:16.159Z,41.35
2023-05-21T15:25:46.851Z,43.55
2023-05-21T15:28:15.865Z,34.92
2023-05-21T15:30:44.886Z,52.45
2023-05-21T15:33:13.932Z,50.67
2023-05-21T15:35:43.688Z,41.55
2023-05-21T15:38:13.274Z,43.22
2023-05-21T15:40:45.042Z,44.70
2023-05-21T15:43:14.026Z,38.92
2023-05-21T15:45:43.557Z,45.72
2023-05-21T15:48:14.184Z,34.80
2023-05-21T15:50:43.397Z,47.22
2023-05-21T15:53:12.877Z,32.88
2023-05-21T15:55:41.930Z,42.95
2023-05-21T15:58:10.957Z,44.38
2023-05-21T16:00:40.089Z,48.67
2023-05-21T16:03:09.767Z,43.78
2023-05-21T16:05:39.026Z,39.65
2023-05-21T16:08:08.381Z,47.00
2023-05-21T16:10:37.439Z,34.85
2023-05-21T16:13:06.501Z,36.65
2023-05-21T16:15:36.161Z,35.00
2023-05-21T16:18:05.386Z,50.67
2023-05-21T16:20:34.979Z,39.28
2023-05-21T16:23:05.178Z,35.78
2023-05-21T16:25:35.281Z,36.55
2023-05-21T16:28:04.488Z,40.65
2023-05-21T16:30:33.543Z,39.35
2023-05-21T16:33:02.662Z,40.13
2023-05-21T16:35:33.426Z,40.85
2023-05-21T16:38:02.436Z,40.75
2023-05-21T16:40:32.586Z,45.97
2023-05-21T16:43:02.324Z,40.55
2023-05-21T16:45:36.779Z,48.85
2023-05-21T16:48:05.934Z,56.17
2023-05-21T16:50:35.244Z,35.33
2023-05-21T16:53:04.408Z,40.83
2023-05-21T16:55:37.535Z,45.88
2023-05-21T16:58:07.313Z,49.45
2023-05-21T17:00:36.266Z,42.75
2023-05-21T17:03:05.444Z,42.67
2023-05-21T17:05:34.745Z,38.25
2023-05-21T17:08:04.355Z,39.67
2023-05-21T17:10:34.989Z,40.28
2023-05-21T17:13:17.680Z,38.28
2023-05-21T17:15:51.214Z,38.17
2023-05-21T17:18:20.425Z,45.28
2023-05-21T17:20:49.471Z,57.35
2023-05-21T17:23:18.625Z,53.75
2023-05-21T17:25:47.847Z,38.63
2023-05-21T17:28:16.838Z,40.65
2023-05-21T17:30:46.870Z,41.60
2023-05-21T17:33:17.847Z,45.60
2023-05-21T17:35:46.969Z,42.28
2023-05-21T17:38:16.001Z,36.47
2023-05-21T17:40:45.036Z,46.08
2023-05-21T17:43:14.040Z,48.42
2023-05-21T17:45:43.032Z,48.70
2023-05-21T17:48:13.493Z,39.92
2023-05-21T17:50:43.104Z,40.08
2023-05-21T17:53:12.118Z,50.58
2023-05-21T17:55:41.477Z,49.40
2023-05-21T17:58:11.528Z,33.28
2023-05-21T18:00:40.612Z,40.38
2023-05-21T18:03:09.704Z,41.20
2023-05-21T18:05:39.052Z,40.88
2023-05-21T18:08:08.614Z,28.85
2023-05-21T18:10:37.732Z,43.50
2023-05-21T18:13:06.821Z,43.47
2023-05-21T18:15:36.400Z,38.28
2023-05-21T18:18:05.655Z,35.88
2023-05-21T18:20:35.687Z,43.20
2023-05-21T18:23:04.905Z,44.05
2023-05-21T18:25:33.870Z,40.15
2023-05-21T18:28:03.352Z,39.90
2023-05-21T18:30:32.360Z,40.67
2023-05-21T18:33:01.463Z,34.05
2023-05-21T18:35:32.615Z,55.22
2023-05-21T18:38:01.654Z,34.78
2023-05-21T18:40:30.903Z,49.67
2023-05-21T18:43:00.313Z,46.70
2023-05-21T18:45:29.567Z,61.05
2023-05-21T18:47:58.625Z,44.15
2023-05-21T18:50:27.856Z,61.90
2023-05-21T18:53:00.052Z,43.90
2023-05-21T18:55:29.058Z,46.58
2023-05-21T18:57:58.146Z,78.38
2023-05-21T19:00:27.729Z,49.83
2023-05-21T19:02:57.767Z,63.78
2023-05-21T19:05:27.310Z,42.10
2023-05-21T19:07:59.221Z,45.20
2023-05-21T19:10:28.731Z,47.17
2023-05-21T19:12:58.840Z,41.42
2023-05-21T19:15:27.889Z,78.05
2023-05-21T19:17:57.006Z,51.55
2023-05-21T19:20:27.742Z,49.25
2023-05-21T19:22:56.876Z,57.17
2023-05-21T19:25:26.060Z,45.47
2023-05-21T19:27:55.182Z,45.42
2023-05-21T19:30:24.238Z,47.75
2023-05-21T19:32:53.354Z,50.72
2023-05-21T19:35:23.861Z,50.85
2023-05-21T19:37:53.039Z,49.38
2023-05-21T19:40:24.170Z,43.88
2023-05-21T19:42:53.240Z,48.67
2023-05-21T19:45:22.999Z,49.95
2023-05-21T19:47:52.716Z,38.75
2023-05-21T19:50:21.764Z,44.05
2023-05-21T19:52:50.819Z,42.75
2023-05-21T19:55:21.621Z,44.53
2023-05-21T19:57:51.037Z,41.67
2023-05-21T20:00:20.358Z,52.90
2023-05-21T20:02:49.565Z,44.58
2023-05-21T20:05:20.131Z,40.28
2023-05-21T20:07:49.192Z,47.55
2023-05-21T20:10:18.215Z,42.53
2023-05-21T20:12:47.578Z,45.67
2023-05-21T20:15:16.584Z,40.72
2023-05-21T20:17:46.214Z,45.40
2023-05-21T20:20:15.234Z,36.50
2023-05-21T20:22:44.391Z,48.30
2023-05-21T20:25:13.352Z,52.83
2023-05-21T20:27:43.030Z,48.10
2023-05-21T20:30:12.327Z,46.53
2023-05-21T20:32:41.415Z,35.65
2023-05-21T20:35:11.419Z,42.47
2023-05-21T20:37:40.451Z,43.88
2023-05-21T20:40:12.154Z,47.65
2023-05-21T20:42:43.215Z,55.85
2023-05-21T20:45:14.360Z,45.28
2023-05-21T20:47:44.014Z,39.00
2023-05-21T20:50:13.713Z,47.30
2023-05-21T20:52:44.415Z,49.72
2023-05-21T20:55:14.848Z,57.80
2023-05-21T20:57:43.933Z,47.38
2023-05-21T21:00:13.465Z,37.72
2023-05-21T21:02:42.586Z,54.17
2023-05-21T21:05:11.808Z,55.30
2023-05-21T21:07:41.584Z,36.03
2023-05-21T21:10:10.865Z,44.00
2023-05-21T21:12:39.860Z,38.05
2023-05-21T21:15:09.242Z,49.08
2023-05-21T21:17:38.294Z,42.00
2023-05-21T21:20:09.115Z,39.78
2023-05-21T21:22:38.302Z,47.17
2023-05-21T21:25:07.661Z,44.97
2023-05-21T21:27:36.675Z,53.28
2023-05-21T21:30:06.227Z,43.67
2023-05-21T21:32:35.316Z,34.65
2023-05-21T21:35:04.637Z,51.83
2023-05-21T21:37:33.681Z,41.20
2023-05-21T21:40:02.701Z,46.65
2023-05-21T21:42:31.777Z,45.83
2023-05-21T21:45:00.809Z,44.60
2023-05-21T21:47:29.969Z,46.30
2023-05-21T21:49:58.967Z,51.13
2023-05-21T21:52:29.018Z,33.15
2023-05-21T21:54:58.000Z,47.90
2023-05-21T21:57:29.023Z,55.60
2023-05-21T21:59:58.015Z,58.85
2023-05-21T22:02:27.346Z,56.15
2023-05-21T22:04:57.265Z,54.38
2023-05-21T22:07:26.361Z,55.97
2023-05-21T22:09:55.345Z,54.35
2023-05-21T22:12:24.405Z,41.95
2023-05-21T22:14:53.827Z,47.53
2023-05-21T22:17:22.919Z,49.97
2023-05-21T22:19:52.470Z,36.33
2023-05-21T22:22:21.475Z,53.25
2023-05-21T22:24:50.562Z,68.93
2023-05-21T22:27:19.634Z,48.13
2023-05-21T22:29:48.736Z,45.58
2023-05-21T22:32:17.730Z,57.63
2023-05-21T22:34:46.797Z,55.15
2023-05-21T22:37:15.962Z,56.38
2023-05-21T22:39:44.914Z,56.22
2023-05-21T22:42:13.936Z,61.50
2023-05-21T22:44:43.090Z,56.92
2023-05-21T22:47:12.166Z,50.55
2023-05-21T22:49:43.979Z,70.13
2023-05-21T22:52:13.000Z,48.15
2023-05-21T22:54:42.101Z,53.80
2023-05-21T22:57:11.147Z,69.75
2023-05-21T22:59:40.085Z,68.10
2023-05-21T23:02:09.297Z,57.70
2023-05-21T23:04:43.731Z,53.63
2023-05-21T23:07:13.957Z,55.88
2023-05-21T23:09:43.249Z,59.38
2023-05-21T23:12:12.754Z,55.40
2023-05-21T23:14:41.802Z,56.25
2023-05-21T23:17:11.281Z,63.42
2023-05-21T23:19:40.798Z,62.78
2023-05-21T23:22:09.926Z,76.97
2023-05-21T23:24:40.493Z,73.43
2023-05-21T23:27:09.690Z,73.88
2023-05-21T23:29:38.702Z,71.22
2023-05-21T23:32:07.993Z,66.68
2023-05-21T23:34:37.421Z,76.32
2023-05-21T23:37:06.595Z,63.28
2023-05-21T23:39:35.595Z,58.38
2023-05-21T23:42:04.900Z,57.30
2023-05-21T23:44:33.964Z,67.10
2023-05-21T23:47:02.977Z,59.65
2023-05-21T23:49:32.012Z,53.88
2023-05-21T23:52:01.016Z,49.03
2023-05-21T23:54:30.056Z,56.47
2023-05-21T23:56:59.153Z,55.53
2023-05-21T23:59:28.156Z,60.70
